sensor_id;sensor_type;location;lat;lon;timestamp;pressure;altitude;pressure_sealevel;temperature;humidity
75629;BME280;64213;46.452;16.994;2023-06-22T00:02:19;99994.28;;;22.95;69.76
75629;BME280;64213;46.452;16.994;2023-06-22T00:05:21;100000.16;;;22.98;69.51
75629;BME280;64213;46.452;16.994;2023-06-22T00:08:24;100002.66;;;23.00;68.57
75629;BME280;64213;46.452;16.994;2023-06-22T00:11:26;100016.34;;;22.98;68.98
75629;BME280;64213;46.452;16.994;2023-06-22T00:14:29;100019.97;;;22.83;69.61
75629;BME280;64213;46.452;16.994;2023-06-22T00:17:31;100033.69;;;22.65;70.70
75629;BME280;64213;46.452;16.994;2023-06-22T00:20:34;100027.44;;;22.41;71.96
75629;BME280;64213;46.452;16.994;2023-06-22T00:23:39;100029.84;;;22.28;72.97
75629;BME280;64213;46.452;16.994;2023-06-22T00:26:41;100024.81;;;22.17;73.72
75629;BME280;64213;46.452;16.994;2023-06-22T00:29:43;100027.03;;;21.97;75.13
75629;BME280;64213;46.452;16.994;2023-06-22T00:32:45;100029.59;;;21.90;75.59
75629;BME280;64213;46.452;16.994;2023-06-22T00:35:48;100025.56;;;21.86;76.12
75629;BME280;64213;46.452;16.994;2023-06-22T00:38:50;100032.78;;;21.86;76.12
75629;BME280;64213;46.452;16.994;2023-06-22T00:41:52;100027.09;;;21.80;76.50
75629;BME280;64213;46.452;16.994;2023-06-22T00:44:54;100030.59;;;21.81;77.11
75629;BME280;64213;46.452;16.994;2023-06-22T00:47:57;100042.91;;;21.83;76.91
75629;BME280;64213;46.452;16.994;2023-06-22T00:51:00;100050.47;;;21.80;77.50
75629;BME280;64213;46.452;16.994;2023-06-22T00:54:03;100039.56;;;21.65;77.79
75629;BME280;64213;46.452;16.994;2023-06-22T00:57:05;100040.41;;;21.57;77.94
75629;BME280;64213;46.452;16.994;2023-06-22T01:00:14;100039.75;;;21.64;78.54
75629;BME280;64213;46.452;16.994;2023-06-22T01:03:19;100050.16;;;21.58;79.41
75629;BME280;64213;46.452;16.994;2023-06-22T01:06:28;100047.13;;;21.53;78.84
75629;BME280;64213;46.452;16.994;2023-06-22T01:09:35;100045.47;;;21.61;78.58
75629;BME280;64213;46.452;16.994;2023-06-22T01:12:46;100046.78;;;21.65;78.98
75629;BME280;64213;46.452;16.994;2023-06-22T01:15:55;100050.50;;;21.55;78.65
75629;BME280;64213;46.452;16.994;2023-06-22T01:22:21;100048.81;;;21.63;79.70
75629;BME280;64213;46.452;16.994;2023-06-22T01:25:33;100042.25;;;21.65;78.73
75629;BME280;64213;46.452;16.994;2023-06-22T01:28:49;100038.19;;;21.77;78.45
75629;BME280;64213;46.452;16.994;2023-06-22T01:31:53;100036.19;;;21.79;78.31
75629;BME280;64213;46.452;16.994;2023-06-22T01:34:57;100041.03;;;21.84;78.35
75629;BME280;64213;46.452;16.994;2023-06-22T01:38:00;100041.03;;;21.92;78.15
75629;BME280;64213;46.452;16.994;2023-06-22T01:41:03;100036.16;;;21.96;78.31
75629;BME280;64213;46.452;16.994;2023-06-22T01:44:07;100037.47;;;22.00;78.56
75629;BME280;64213;46.452;16.994;2023-06-22T01:47:09;100034.59;;;22.10;79.09
75629;BME280;64213;46.452;16.994;2023-06-22T01:50:12;100040.16;;;22.08;78.98
75629;BME280;64213;46.452;16.994;2023-06-22T01:53:15;100047.13;;;21.62;81.14
75629;BME280;64213;46.452;16.994;2023-06-22T01:56:17;100041.72;;;21.12;83.35
75629;BME280;64213;46.452;16.994;2023-06-22T01:59:29;100039.12;;;20.78;86.02
75629;BME280;64213;46.452;16.994;2023-06-22T02:02:46;100038.78;;;20.73;85.71
75629;BME280;64213;46.452;16.994;2023-06-22T02:05:58;100033.91;;;20.69;86.50
75629;BME280;64213;46.452;16.994;2023-06-22T02:09:08;100044.28;;;20.55;87.70
75629;BME280;64213;46.452;16.994;2023-06-22T02:12:13;100044.00;;;20.40;88.03
75629;BME280;64213;46.452;16.994;2023-06-22T02:15:16;100043.63;;;20.35;88.65
75629;BME280;64213;46.452;16.994;2023-06-22T02:18:18;100051.63;;;20.19;90.23
75629;BME280;64213;46.452;16.994;2023-06-22T02:21:23;100048.06;;;20.10;91.54
75629;BME280;64213;46.452;16.994;2023-06-22T02:24:25;100049.38;;;20.06;92.38
75629;BME280;64213;46.452;16.994;2023-06-22T02:27:28;100055.91;;;20.04;94.05
75629;BME280;64213;46.452;16.994;2023-06-22T02:30:30;100054.91;;;20.05;94.32
75629;BME280;64213;46.452;16.994;2023-06-22T02:33:32;100061.66;;;20.09;94.73
75629;BME280;64213;46.452;16.994;2023-06-22T02:40:12;100054.91;;;20.05;95.03
75629;BME280;64213;46.452;16.994;2023-06-22T02:43:15;100060.13;;;20.06;95.49
75629;BME280;64213;46.452;16.994;2023-06-22T02:46:17;100065.66;;;20.05;95.02
75629;BME280;64213;46.452;16.994;2023-06-22T02:49:20;100071.56;;;20.08;94.99
75629;BME280;64213;46.452;16.994;2023-06-22T02:52:22;100073.22;;;20.09;95.35
75629;BME280;64213;46.452;16.994;2023-06-22T02:55:24;100075.13;;;20.17;94.85
75629;BME280;64213;46.452;16.994;2023-06-22T02:58:26;100086.72;;;20.17;95.07
75629;BME280;64213;46.452;16.994;2023-06-22T03:01:29;100091.78;;;20.20;95.53
75629;BME280;64213;46.452;16.994;2023-06-22T03:04:42;100075.66;;;20.20;95.90
75629;BME280;64213;46.452;16.994;2023-06-22T03:07:45;100066.97;;;20.27;95.74
75629;BME280;64213;46.452;16.994;2023-06-22T03:10:47;100073.31;;;20.26;95.55
75629;BME280;64213;46.452;16.994;2023-06-22T03:13:49;100067.09;;;20.25;96.21
75629;BME280;64213;46.452;16.994;2023-06-22T03:16:54;100062.56;;;20.26;95.53
75629;BME280;64213;46.452;16.994;2023-06-22T03:19:56;100068.00;;;20.34;95.64
75629;BME280;64213;46.452;16.994;2023-06-22T03:22:58;100063.09;;;20.29;96.33
75629;BME280;64213;46.452;16.994;2023-06-22T03:26:01;100061.94;;;20.32;95.99
75629;BME280;64213;46.452;16.994;2023-06-22T03:29:03;100057.56;;;20.31;96.30
75629;BME280;64213;46.452;16.994;2023-06-22T03:32:05;100063.00;;;20.39;96.16
75629;BME280;64213;46.452;16.994;2023-06-22T03:35:08;100055.78;;;20.48;95.34
75629;BME280;64213;46.452;16.994;2023-06-22T03:38:11;100059.03;;;20.51;95.99
75629;BME280;64213;46.452;16.994;2023-06-22T03:41:13;100049.66;;;20.55;95.61
75629;BME280;64213;46.452;16.994;2023-06-22T03:44:15;100041.44;;;20.65;95.68
75629;BME280;64213;46.452;16.994;2023-06-22T03:47:17;100052.22;;;20.73;95.66
75629;BME280;64213;46.452;16.994;2023-06-22T03:50:20;100055.59;;;20.83;94.82
75629;BME280;64213;46.452;16.994;2023-06-22T03:53:22;100056.12;;;20.95;93.97
75629;BME280;64213;46.452;16.994;2023-06-22T03:56:24;100050.09;;;21.01;93.64
75629;BME280;64213;46.452;16.994;2023-06-22T03:59:26;100058.00;;;21.11;93.25
75629;BME280;64213;46.452;16.994;2023-06-22T04:02:28;100060.72;;;21.19;91.95
75629;BME280;64213;46.452;16.994;2023-06-22T04:05:31;100062.94;;;21.32;91.02
75629;BME280;64213;46.452;16.994;2023-06-22T04:08:33;100064.66;;;21.41;90.41
75629;BME280;64213;46.452;16.994;2023-06-22T04:11:35;100070.19;;;21.48;89.95
75629;BME280;64213;46.452;16.994;2023-06-22T04:14:37;100057.37;;;21.50;89.46
75629;BME280;64213;46.452;16.994;2023-06-22T04:17:39;100053.03;;;21.57;88.47
75629;BME280;64213;46.452;16.994;2023-06-22T04:20:42;100061.59;;;21.69;87.91
75629;BME280;64213;46.452;16.994;2023-06-22T04:23:44;100064.28;;;21.69;87.77
75629;BME280;64213;46.452;16.994;2023-06-22T04:26:47;100057.19;;;21.76;87.14
75629;BME280;64213;46.452;16.994;2023-06-22T04:29:50;100066.63;;;21.80;86.90
75629;BME280;64213;46.452;16.994;2023-06-22T04:32:53;100065.62;;;21.89;86.37
75629;BME280;64213;46.452;16.994;2023-06-22T04:36:00;100068.28;;;21.97;85.94
75629;BME280;64213;46.452;16.994;2023-06-22T04:39:10;100065.25;;;22.09;85.07
75629;BME280;64213;46.452;16.994;2023-06-22T04:42:12;100071.28;;;22.11;84.88
75629;BME280;64213;46.452;16.994;2023-06-22T04:45:14;100066.94;;;22.18;84.31
75629;BME280;64213;46.452;16.994;2023-06-22T04:48:16;100070.78;;;22.23;83.68
75629;BME280;64213;46.452;16.994;2023-06-22T04:51:19;100077.31;;;22.37;83.13
75629;BME280;64213;46.452;16.994;2023-06-22T04:54:23;100074.75;;;22.44;82.64
75629;BME280;64213;46.452;16.994;2023-06-22T04:57:26;100068.13;;;22.55;81.65
75629;BME280;64213;46.452;16.994;2023-06-22T05:00:34;100071.44;;;22.65;81.26
75629;BME280;64213;46.452;16.994;2023-06-22T05:03:38;100075.03;;;22.57;81.46
75629;BME280;64213;46.452;16.994;2023-06-22T05:06:44;100064.72;;;22.69;80.88
75629;BME280;64213;46.452;16.994;2023-06-22T05:09:47;100068.03;;;22.79;80.45
75629;BME280;64213;46.452;16.994;2023-06-22T05:12:49;100071.00;;;22.84;80.19
75629;BME280;64213;46.452;16.994;2023-06-22T05:15:51;100071.81;;;22.93;79.92
75629;BME280;64213;46.452;16.994;2023-06-22T05:18:54;100077.75;;;22.88;79.75
75629;BME280;64213;46.452;16.994;2023-06-22T05:21:57;100078.69;;;23.04;79.45
75629;BME280;64213;46.452;16.994;2023-06-22T05:24:59;100077.69;;;23.05;79.46
75629;BME280;64213;46.452;16.994;2023-06-22T05:28:01;100082.78;;;23.00;79.64
75629;BME280;64213;46.452;16.994;2023-06-22T05:31:05;100074.50;;;23.01;79.71
75629;BME280;64213;46.452;16.994;2023-06-22T05:34:07;100080.41;;;23.05;79.56
75629;BME280;64213;46.452;16.994;2023-06-22T05:37:09;100078.25;;;23.23;79.08
75629;BME280;64213;46.452;16.994;2023-06-22T05:40:12;100082.19;;;23.35;78.74
75629;BME280;64213;46.452;16.994;2023-06-22T05:43:15;100079.59;;;23.42;78.45
75629;BME280;64213;46.452;16.994;2023-06-22T05:46:18;100078.25;;;23.46;78.17
75629;BME280;64213;46.452;16.994;2023-06-22T05:49:20;100085.38;;;23.62;77.62
75629;BME280;64213;46.452;16.994;2023-06-22T05:52:24;100086.81;;;23.73;77.09
75629;BME280;64213;46.452;16.994;2023-06-22T05:55:26;100084.25;;;23.94;76.49
75629;BME280;64213;46.452;16.994;2023-06-22T05:58:28;100088.94;;;24.15;75.84
75629;BME280;64213;46.452;16.994;2023-06-22T06:01:30;100087.16;;;24.37;75.24
75629;BME280;64213;46.452;16.994;2023-06-22T06:04:36;100086.09;;;24.46;75.13
75629;BME280;64213;46.452;16.994;2023-06-22T06:07:39;100080.97;;;24.51;74.98
75629;BME280;64213;46.452;16.994;2023-06-22T06:10:41;100083.69;;;24.88;74.18
75629;BME280;64213;46.452;16.994;2023-06-22T06:13:44;100081.78;;;25.03;73.67
75629;BME280;64213;46.452;16.994;2023-06-22T06:16:48;100081.97;;;25.16;73.46
75629;BME280;64213;46.452;16.994;2023-06-22T06:19:51;100092.09;;;25.29;73.15
75629;BME280;64213;46.452;16.994;2023-06-22T06:22:53;100092.66;;;25.46;72.99
75629;BME280;64213;46.452;16.994;2023-06-22T06:25:55;100091.16;;;25.65;72.31
75629;BME280;64213;46.452;16.994;2023-06-22T06:28:59;100083.59;;;25.54;72.78
75629;BME280;64213;46.452;16.994;2023-06-22T06:32:02;100083.56;;;26.03;71.35
75629;BME280;64213;46.452;16.994;2023-06-22T06:35:06;100089.09;;;26.51;69.91
75629;BME280;64213;46.452;16.994;2023-06-22T06:38:08;100083.59;;;26.73;69.08
75629;BME280;64213;46.452;16.994;2023-06-22T06:41:10;100081.41;;;27.09;67.89
75629;BME280;64213;46.452;16.994;2023-06-22T06:44:13;100085.25;;;27.35;66.79
75629;BME280;64213;46.452;16.994;2023-06-22T06:47:15;100085.28;;;27.48;66.20
75629;BME280;64213;46.452;16.994;2023-06-22T06:50:19;100082.81;;;27.80;64.98
75629;BME280;64213;46.452;16.994;2023-06-22T06:53:21;100082.09;;;28.31;64.13
75629;BME280;64213;46.452;16.994;2023-06-22T06:56:23;100083.59;;;28.40;63.82
75629;BME280;64213;46.452;16.994;2023-06-22T06:59:25;100076.97;;;28.68;62.96
75629;BME280;64213;46.452;16.994;2023-06-22T07:02:28;100082.84;;;28.65;62.72
75629;BME280;64213;46.452;16.994;2023-06-22T07:05:31;100081.00;;;28.52;62.74
75629;BME280;64213;46.452;16.994;2023-06-22T07:08:33;100083.63;;;28.85;61.99
75629;BME280;64213;46.452;16.994;2023-06-22T07:11:37;100073.22;;;28.69;62.76
75629;BME280;64213;46.452;16.994;2023-06-22T07:14:39;100072.03;;;28.96;62.19
75629;BME280;64213;46.452;16.994;2023-06-22T07:17:41;100066.84;;;29.58;60.41
75629;BME280;64213;46.452;16.994;2023-06-22T07:20:44;100070.22;;;30.04;58.76
75629;BME280;64213;46.452;16.994;2023-06-22T07:23:46;100061.41;;;30.45;58.03
75629;BME280;64213;46.452;16.994;2023-06-22T07:26:48;100063.75;;;30.23;58.02
75629;BME280;64213;46.452;16.994;2023-06-22T07:29:52;100062.53;;;30.56;57.45
75629;BME280;64213;46.452;16.994;2023-06-22T07:32:54;100060.56;;;30.81;57.08
75629;BME280;64213;46.452;16.994;2023-06-22T07:35:57;100059.34;;;31.08;56.22
75629;BME280;64213;46.452;16.994;2023-06-22T07:38:59;100060.81;;;30.92;56.47
75629;BME280;64213;46.452;16.994;2023-06-22T07:42:01;100056.84;;;31.36;55.69
75629;BME280;64213;46.452;16.994;2023-06-22T07:45:04;100057.97;;;31.82;54.47
75629;BME280;64213;46.452;16.994;2023-06-22T07:48:07;100060.66;;;31.05;55.72
75629;BME280;64213;46.452;16.994;2023-06-22T07:51:09;100060.87;;;31.03;55.98
75629;BME280;64213;46.452;16.994;2023-06-22T07:54:14;100052.53;;;31.28;55.59
75629;BME280;64213;46.452;16.994;2023-06-22T07:57:19;100058.53;;;31.49;54.97
75629;BME280;64213;46.452;16.994;2023-06-22T08:00:21;100056.69;;;32.20;53.02
75629;BME280;64213;46.452;16.994;2023-06-22T08:03:23;100062.03;;;32.03;53.63
75629;BME280;64213;46.452;16.994;2023-06-22T08:06:26;100059.38;;;32.32;52.87
75629;BME280;64213;46.452;16.994;2023-06-22T08:09:29;100061.31;;;32.31;53.19
75629;BME280;64213;46.452;16.994;2023-06-22T08:12:32;100059.22;;;33.02;51.53
75629;BME280;64213;46.452;16.994;2023-06-22T08:15:34;100054.69;;;33.25;50.71
75629;BME280;64213;46.452;16.994;2023-06-22T08:18:36;100059.59;;;32.94;51.42
75629;BME280;64213;46.452;16.994;2023-06-22T08:21:39;100055.22;;;32.93;51.90
75629;BME280;64213;46.452;16.994;2023-06-22T08:24:41;100041.13;;;33.01;51.71
75629;BME280;64213;46.452;16.994;2023-06-22T08:27:47;100054.13;;;33.23;51.26
75629;BME280;64213;46.452;16.994;2023-06-22T08:30:50;100051.00;;;33.65;50.55
75629;BME280;64213;46.452;16.994;2023-06-22T08:33:52;100046.69;;;33.69;49.98
75629;BME280;64213;46.452;16.994;2023-06-22T08:36:54;100043.31;;;34.00;49.38
75629;BME280;64213;46.452;16.994;2023-06-22T08:39:59;100046.69;;;33.69;50.62
75629;BME280;64213;46.452;16.994;2023-06-22T08:43:01;100052.06;;;33.47;50.59
75629;BME280;64213;46.452;16.994;2023-06-22T08:46:03;100044.88;;;32.83;52.22
75629;BME280;64213;46.452;16.994;2023-06-22T08:49:06;100039.38;;;33.58;50.29
75629;BME280;64213;46.452;16.994;2023-06-22T08:52:08;100043.56;;;34.16;49.28
75629;BME280;64213;46.452;16.994;2023-06-22T08:55:11;100031.34;;;34.94;47.60
75629;BME280;64213;46.452;16.994;2023-06-22T08:58:13;100037.37;;;34.47;48.67
75629;BME280;64213;46.452;16.994;2023-06-22T09:01:15;100040.56;;;34.56;47.91
75629;BME280;64213;46.452;16.994;2023-06-22T09:04:17;100044.47;;;34.43;48.47
75629;BME280;64213;46.452;16.994;2023-06-22T09:07:20;100030.94;;;34.37;48.72
75629;BME280;64213;46.452;16.994;2023-06-22T09:10:25;100035.03;;;33.95;48.89
75629;BME280;64213;46.452;16.994;2023-06-22T09:13:31;100034.31;;;34.22;48.50
75629;BME280;64213;46.452;16.994;2023-06-22T09:16:34;100038.91;;;34.16;49.11
75629;BME280;64213;46.452;16.994;2023-06-22T09:19:36;100034.44;;;34.32;49.28
75629;BME280;64213;46.452;16.994;2023-06-22T09:22:38;100033.72;;;34.20;48.73
75629;BME280;64213;46.452;16.994;2023-06-22T09:25:41;100031.78;;;34.59;47.80
75629;BME280;64213;46.452;16.994;2023-06-22T09:28:43;100017.84;;;34.93;46.77
75629;BME280;64213;46.452;16.994;2023-06-22T09:31:45;100021.38;;;35.80;44.83
75629;BME280;64213;46.452;16.994;2023-06-22T09:34:47;100010.69;;;35.89;44.80
75629;BME280;64213;46.452;16.994;2023-06-22T09:37:50;100014.50;;;35.13;45.46
75629;BME280;64213;46.452;16.994;2023-06-22T09:40:54;100009.09;;;35.23;45.60
75629;BME280;64213;46.452;16.994;2023-06-22T09:43:57;100010.84;;;34.80;45.99
75629;BME280;64213;46.452;16.994;2023-06-22T09:46:59;100010.06;;;34.58;46.19
75629;BME280;64213;46.452;16.994;2023-06-22T09:50:02;100002.13;;;35.85;43.92
75629;BME280;64213;46.452;16.994;2023-06-22T09:53:04;99996.16;;;35.24;45.07
75629;BME280;64213;46.452;16.994;2023-06-22T09:56:06;100001.94;;;34.95;45.25
75629;BME280;64213;46.452;16.994;2023-06-22T09:59:08;99998.81;;;36.30;42.77
75629;BME280;64213;46.452;16.994;2023-06-22T10:02:19;99997.44;;;35.80;43.41
75629;BME280;64213;46.452;16.994;2023-06-22T10:05:22;99996.94;;;36.41;42.43
75629;BME280;64213;46.452;16.994;2023-06-22T10:08:24;100005.03;;;36.68;41.77
75629;BME280;64213;46.452;16.994;2023-06-22T10:11:27;99993.81;;;37.06;40.93
75629;BME280;64213;46.452;16.994;2023-06-22T10:14:32;99994.09;;;37.60;40.19
75629;BME280;64213;46.452;16.994;2023-06-22T10:17:34;99992.34;;;37.90;39.42
75629;BME280;64213;46.452;16.994;2023-06-22T10:20:36;99989.09;;;37.67;40.25
75629;BME280;64213;46.452;16.994;2023-06-22T10:23:39;99988.50;;;36.73;40.90
75629;BME280;64213;46.452;16.994;2023-06-22T10:26:41;99978.63;;;37.54;39.44
75629;BME280;64213;46.452;16.994;2023-06-22T10:29:44;99981.06;;;36.84;39.55
75629;BME280;64213;46.452;16.994;2023-06-22T10:32:46;99978.84;;;36.81;40.38
75629;BME280;64213;46.452;16.994;2023-06-22T10:35:48;99985.75;;;36.84;40.31
75629;BME280;64213;46.452;16.994;2023-06-22T10:38:50;99989.09;;;36.18;41.26
75629;BME280;64213;46.452;16.994;2023-06-22T10:41:54;99987.00;;;36.35;41.92
75629;BME280;64213;46.452;16.994;2023-06-22T10:44:58;99985.72;;;36.63;41.74
75629;BME280;64213;46.452;16.994;2023-06-22T10:48:00;99981.28;;;36.52;42.15
75629;BME280;64213;46.452;16.994;2023-06-22T10:51:02;99981.13;;;37.15;41.30
75629;BME280;64213;46.452;16.994;2023-06-22T10:54:04;99986.91;;;37.39;41.06
75629;BME280;64213;46.452;16.994;2023-06-22T10:57:07;99992.31;;;36.52;42.81
75629;BME280;64213;46.452;16.994;2023-06-22T11:00:10;99993.19;;;36.05;43.85
75629;BME280;64213;46.452;16.994;2023-06-22T11:03:13;99980.56;;;36.14;44.04
75629;BME280;64213;46.452;16.994;2023-06-22T11:06:16;99977.19;;;36.75;43.01
75629;BME280;64213;46.452;16.994;2023-06-22T11:09:18;99971.16;;;36.93;42.51
75629;BME280;64213;46.452;16.994;2023-06-22T11:12:30;99970.31;;;36.77;42.16
75629;BME280;64213;46.452;16.994;2023-06-22T11:15:32;99968.66;;;36.76;42.83
75629;BME280;64213;46.452;16.994;2023-06-22T11:18:34;99959.88;;;37.41;41.46
75629;BME280;64213;46.452;16.994;2023-06-22T11:21:36;99959.88;;;37.56;41.30
75629;BME280;64213;46.452;16.994;2023-06-22T11:24:39;99954.63;;;37.55;41.24
75629;BME280;64213;46.452;16.994;2023-06-22T11:27:41;99944.88;;;37.98;39.42
75629;BME280;64213;46.452;16.994;2023-06-22T11:30:43;99942.59;;;38.10;39.23
75629;BME280;64213;46.452;16.994;2023-06-22T11:33:45;99947.63;;;37.98;39.96
75629;BME280;64213;46.452;16.994;2023-06-22T11:36:48;99936.12;;;37.30;40.36
75629;BME280;64213;46.452;16.994;2023-06-22T11:39:51;99936.12;;;37.40;39.35
75629;BME280;64213;46.452;16.994;2023-06-22T11:43:07;99927.28;;;36.97;39.54
75629;BME280;64213;46.452;16.994;2023-06-22T11:46:09;99931.59;;;37.90;38.71
75629;BME280;64213;46.452;16.994;2023-06-22T11:49:12;99927.28;;;38.28;37.93
75629;BME280;64213;46.452;16.994;2023-06-22T11:52:14;99919.44;;;38.95;37.07
75629;BME280;64213;46.452;16.994;2023-06-22T11:55:16;99921.72;;;39.17;36.63
75629;BME280;64213;46.452;16.994;2023-06-22T11:58:19;99926.97;;;38.35;37.74
75629;BME280;64213;46.452;16.994;2023-06-22T12:01:21;99932.69;;;38.04;39.07
75629;BME280;64213;46.452;16.994;2023-06-22T12:04:23;99921.69;;;39.51;36.50
75629;BME280;64213;46.452;16.994;2023-06-22T12:07:25;99929.41;;;39.55;36.33
75629;BME280;64213;46.452;16.994;2023-06-22T12:10:28;99917.59;;;39.73;35.74
75629;BME280;64213;46.452;16.994;2023-06-22T12:13:33;99923.50;;;40.09;35.30
75629;BME280;64213;46.452;16.994;2023-06-22T12:16:35;99908.03;;;39.84;35.53
75629;BME280;64213;46.452;16.994;2023-06-22T12:19:37;99901.59;;;38.33;36.53
75629;BME280;64213;46.452;16.994;2023-06-22T12:22:40;99919.41;;;38.06;36.17
75629;BME280;64213;46.452;16.994;2023-06-22T12:25:44;99918.38;;;37.82;35.52
75629;BME280;64213;46.452;16.994;2023-06-22T12:28:47;99913.53;;;37.22;37.21
75629;BME280;64213;46.452;16.994;2023-06-22T12:31:49;99916.78;;;37.65;36.53
75629;BME280;64213;46.452;16.994;2023-06-22T12:34:52;99918.13;;;37.73;36.41
75629;BME280;64213;46.452;16.994;2023-06-22T12:37:54;99903.03;;;37.40;37.08
75629;BME280;64213;46.452;16.994;2023-06-22T12:40:56;99903.16;;;37.84;36.31
75629;BME280;64213;46.452;16.994;2023-06-22T12:43:58;99901.34;;;37.49;37.26
75629;BME280;64213;46.452;16.994;2023-06-22T12:47:00;99886.31;;;38.80;34.78
75629;BME280;64213;46.452;16.994;2023-06-22T12:50:03;99880.25;;;38.44;35.49
75629;BME280;64213;46.452;16.994;2023-06-22T12:53:06;99887.09;;;38.51;34.99
75629;BME280;64213;46.452;16.994;2023-06-22T12:56:08;99895.88;;;37.03;37.63
75629;BME280;64213;46.452;16.994;2023-06-22T12:59:11;99876.72;;;37.78;36.19
75629;BME280;64213;46.452;16.994;2023-06-22T13:02:13;99878.44;;;37.43;37.10
75629;BME280;64213;46.452;16.994;2023-06-22T13:05:15;99866.81;;;38.22;35.71
75629;BME280;64213;46.452;16.994;2023-06-22T13:08:18;99881.66;;;37.76;36.25
75629;BME280;64213;46.452;16.994;2023-06-22T13:11:20;99869.38;;;37.28;37.22
75629;BME280;64213;46.452;16.994;2023-06-22T13:14:22;99859.75;;;36.69;38.52
75629;BME280;64213;46.452;16.994;2023-06-22T13:17:25;99855.87;;;36.65;39.05
75629;BME280;64213;46.452;16.994;2023-06-22T13:20:28;99859.94;;;37.54;37.59
75629;BME280;64213;46.452;16.994;2023-06-22T13:23:31;99855.31;;;37.14;38.09
75629;BME280;64213;46.452;16.994;2023-06-22T13:26:33;99857.56;;;37.02;38.61
75629;BME280;64213;46.452;16.994;2023-06-22T13:29:35;99856.66;;;37.32;37.98
75629;BME280;64213;46.452;16.994;2023-06-22T13:32:37;99841.00;;;37.97;37.09
75629;BME280;64213;46.452;16.994;2023-06-22T13:35:40;99845.62;;;37.27;38.61
75629;BME280;64213;46.452;16.994;2023-06-22T13:38:44;99845.06;;;37.50;38.19
75629;BME280;64213;46.452;16.994;2023-06-22T13:41:46;99841.00;;;37.97;37.55
75629;BME280;64213;46.452;16.994;2023-06-22T13:44:48;99844.50;;;37.53;38.45
75629;BME280;64213;46.452;16.994;2023-06-22T13:47:51;99834.22;;;37.64;38.68
75629;BME280;64213;46.452;16.994;2023-06-22T13:50:53;99827.19;;;37.12;39.73
75629;BME280;64213;46.452;16.994;2023-06-22T13:53:55;99837.41;;;36.96;39.51
75629;BME280;64213;46.452;16.994;2023-06-22T13:56:57;99824.19;;;37.08;39.13
75629;BME280;64213;46.452;16.994;2023-06-22T14:00:00;99830.81;;;36.71;39.74
75629;BME280;64213;46.452;16.994;2023-06-22T14:03:02;99828.28;;;37.11;38.80
75629;BME280;64213;46.452;16.994;2023-06-22T14:06:05;99825.19;;;36.05;39.29
75629;BME280;64213;46.452;16.994;2023-06-22T14:09:08;99826.75;;;35.80;39.70
75629;BME280;64213;46.452;16.994;2023-06-22T14:12:11;99811.41;;;36.00;39.67
75629;BME280;64213;46.452;16.994;2023-06-22T14:15:13;99807.06;;;36.35;38.65
75629;BME280;64213;46.452;16.994;2023-06-22T14:18:16;99809.84;;;36.55;38.71
75629;BME280;64213;46.452;16.994;2023-06-22T14:21:18;99804.81;;;36.11;39.50
75629;BME280;64213;46.452;16.994;2023-06-22T14:24:20;99806.47;;;36.02;39.62
75629;BME280;64213;46.452;16.994;2023-06-22T14:27:26;99809.22;;;36.07;39.48
75629;BME280;64213;46.452;16.994;2023-06-22T14:30:28;99801.50;;;36.04;39.62
75629;BME280;64213;46.452;16.994;2023-06-22T14:33:31;99802.06;;;36.21;39.25
75629;BME280;64213;46.452;16.994;2023-06-22T14:36:33;99792.63;;;35.86;40.05
75629;BME280;64213;46.452;16.994;2023-06-22T14:39:35;99788.75;;;35.82;40.36
75629;BME280;64213;46.452;16.994;2023-06-22T14:42:38;99787.97;;;35.87;40.26
75629;BME280;64213;46.452;16.994;2023-06-22T14:45:41;99788.75;;;35.72;40.87
75629;BME280;64213;46.452;16.994;2023-06-22T14:48:43;99776.72;;;36.04;40.41
75629;BME280;64213;46.452;16.994;2023-06-22T14:51:46;99784.34;;;35.76;41.27
75629;BME280;64213;46.452;16.994;2023-06-22T14:54:48;99778.25;;;35.59;41.22
75629;BME280;64213;46.452;16.994;2023-06-22T14:57:50;99779.34;;;35.58;41.54
75629;BME280;64213;46.452;16.994;2023-06-22T15:00:52;99781.25;;;35.57;41.10
75629;BME280;64213;46.452;16.994;2023-06-22T15:03:55;99780.34;;;34.30;43.33
75629;BME280;64213;46.452;16.994;2023-06-22T15:06:57;99774.81;;;34.89;42.89
75629;BME280;64213;46.452;16.994;2023-06-22T15:09:59;99781.44;;;34.29;43.07
75629;BME280;64213;46.452;16.994;2023-06-22T15:13:02;99776.41;;;34.47;43.05
75629;BME280;64213;46.452;16.994;2023-06-22T15:16:04;99773.94;;;34.51;42.82
75629;BME280;64213;46.452;16.994;2023-06-22T15:19:07;99769.16;;;34.68;42.33
75629;BME280;64213;46.452;16.994;2023-06-22T15:22:09;99776.25;;;34.27;43.27
75629;BME280;64213;46.452;16.994;2023-06-22T15:25:11;99770.31;;;34.40;42.93
75629;BME280;64213;46.452;16.994;2023-06-22T15:28:14;99769.59;;;34.23;43.58
75629;BME280;64213;46.452;16.994;2023-06-22T15:31:16;99768.09;;;34.10;44.16
75629;BME280;64213;46.452;16.994;2023-06-22T15:34:19;99770.06;;;34.15;44.28
75629;BME280;64213;46.452;16.994;2023-06-22T15:37:21;99765.66;;;34.14;44.60
75629;BME280;64213;46.452;16.994;2023-06-22T15:40:23;99766.22;;;34.16;44.38
75629;BME280;64213;46.452;16.994;2023-06-22T15:43:25;99760.25;;;33.70;45.65
75629;BME280;64213;46.452;16.994;2023-06-22T15:46:28;99758.75;;;33.84;46.02
75629;BME280;64213;46.452;16.994;2023-06-22T15:49:30;99759.06;;;33.61;46.68
75629;BME280;64213;46.452;16.994;2023-06-22T15:52:32;99769.19;;;33.60;46.67
75629;BME280;64213;46.452;16.994;2023-06-22T15:55:34;99753.34;;;33.45;46.76